Archival Weather

NSFA McMurdo Sound

NSFA McMurdo Sound, Antarctica (NZCM)

Report from: Friday, September 23, 2022 2:18 PM UTC
Current time: Sunday, December 4, 2022 11:46 AM UTC

Current weather
Weather history
Weather forecast

Present weatherLight snow, mist
Temperature-18.5°C (-1.3°F)
Wind chill-28.6°C (-19.6°F)
Dew point-23.4°C (-10.1°F)
Winds 11 kts (5.7 m/s, 12.7 mph) East (80°)
Wind gusts 17 kts (8.7 m/s, 19.6 mph)
Visibility1.5 mi. (2.4 km)
Clouds Ceiling: Overcast 1,300 ft. (396 m)
Altimeter28.63 in.Hg (970 mB)
Precip. events Snow ended 1:57 PM
Snow began 1:59 PM
Relative humidity65 %
Density altitude-2,710 ft. (-826 m)
Sea-level pressure107.0 kPa (1070 mB, 31.60 in.Hg)
Remarks Fully automated report
System requires maintenance
Special weather observation
Automated weather observing station with precipitation discriminator
Flight conditions Instrument Meteorological Conditions
Raw dataSPECI NZCM 231418Z AUTO 08011G17KT 2400 -SN BR OVC013 M19/M23 A2863 RMK AO2 WSHFT 1414 SNE1357B1359 SLP701 T11851234 $
An error has occurred. This application may no longer respond until reloaded. Reload 🗙